Boston, Massachusetts
Traffic Map
Current Weather Conditions
Boston, Massachusetts
Overcast Light Rain
Overcast
15°
Feels Like: 15°
Wind Chill: 15° Ceiling: 1200
Heat Index: 15° Visibility: 10mi
Dew Point: 14° Wind: 10mph
Humidity: 93% Direction: 10° (N)
Pressure: 30.11in Gusts: 0mph
Raw Report DataKBOS 251454Z 01009KT 10SM -RA OVC012 15/14 A3011 RMK AO2 RAB06 SLP194 P0001 60001 T01500139 51011
Traffic Incident Summary
Active as of:
Severity:
Category:
InformationThere was an issue retrieving the traffic information for this location. Please try a different location or try again shortly.
Advertisements
Track Severe Weather on mobile